ローマ/フィウミチーノ の空港の天気 - METARとTAF

ローマ・レオナルド・ダ・ビンチ国際空港 ( LIRF / FCO ) - イタリア ローマ
飛行場実況気象(Metar)
観測時間09/21 22:50 CEST (09/21 20:50 UTC)
風向・風速不定 1m/s
視程10km以上
天気現象
なし
気温16℃
湿度82%
気圧1020hPa
METARLIRF 212050Z VRB01KT CAVOK 16/13 Q1020 NOSIG
過去の天気等 Google飛行場航空写真 Wunderground天気予報

過去48時間のMETAR

飛行場予報(TAF)
発表時間: 9/21 19:00 CEST (9/21 17:00 UTC)
予報対象時間: 21日20時 CEST ~ 23日2時 CEST
風向・風速不定 3m/s
視程10km以上
なし
22日2時 CEST ~ 22日7時 CEST に一時的に
視程4,000m
天気現象もや
22日10時 CEST ~ 22日12時 CEST に徐々に
風向・風速西 6m/s
22日20時 CEST ~ 22日22時 CEST に徐々に
風向・風速不定 2m/s
TAF LIRF 211700Z 2118/2224 VRB06KT CAVOK
TEMPO 2200/2205 4000 BR
BECMG 2208/2210 27012KT
BECMG 2218/2220 VRB04KT